sensor_id;sensor_type;location;lat;lon;timestamp;P1;durP1;ratioP1;P2;durP2;ratioP2
1759;SDS011;877;46.266;20.062;2023-07-29T00:02:08;11.40;;;6.00;;
1759;SDS011;877;46.266;20.062;2023-07-29T00:04:33;9.10;;;6.17;;
1759;SDS011;877;46.266;20.062;2023-07-29T00:06:59;9.17;;;4.63;;
1759;SDS011;877;46.266;20.062;2023-07-29T00:09:25;8.57;;;4.80;;
1759;SDS011;877;46.266;20.062;2023-07-29T00:11:51;10.03;;;5.00;;
1759;SDS011;877;46.266;20.062;2023-07-29T00:14:17;10.57;;;5.67;;
1759;SDS011;877;46.266;20.062;2023-07-29T00:16:42;10.10;;;5.13;;
1759;SDS011;877;46.266;20.062;2023-07-29T00:19:08;12.80;;;4.80;;
1759;SDS011;877;46.266;20.062;2023-07-29T00:21:34;8.70;;;5.10;;
1759;SDS011;877;46.266;20.062;2023-07-29T00:24:00;7.47;;;5.50;;
1759;SDS011;877;46.266;20.062;2023-07-29T00:26:26;6.53;;;4.90;;
1759;SDS011;877;46.266;20.062;2023-07-29T00:28:54;12.70;;;5.60;;
1759;SDS011;877;46.266;20.062;2023-07-29T00:31:21;10.00;;;5.40;;
1759;SDS011;877;46.266;20.062;2023-07-29T00:33:47;7.10;;;5.60;;
1759;SDS011;877;46.266;20.062;2023-07-29T00:36:13;8.70;;;5.10;;
1759;SDS011;877;46.266;20.062;2023-07-29T00:38:38;10.00;;;5.33;;
1759;SDS011;877;46.266;20.062;2023-07-29T00:41:05;10.93;;;5.30;;
1759;SDS011;877;46.266;20.062;2023-07-29T00:43:32;8.70;;;5.50;;
1759;SDS011;877;46.266;20.062;2023-07-29T00:45:58;8.90;;;5.33;;
1759;SDS011;877;46.266;20.062;2023-07-29T00:48:25;8.70;;;4.90;;
1759;SDS011;877;46.266;20.062;2023-07-29T00:50:51;11.50;;;5.50;;
1759;SDS011;877;46.266;20.062;2023-07-29T00:53:18;11.23;;;6.40;;
1759;SDS011;877;46.266;20.062;2023-07-29T00:55:44;7.50;;;5.40;;
1759;SDS011;877;46.266;20.062;2023-07-29T00:58:10;8.13;;;6.10;;
1759;SDS011;877;46.266;20.062;2023-07-29T01:00:35;10.23;;;5.67;;
1759;SDS011;877;46.266;20.062;2023-07-29T01:03:02;8.63;;;5.13;;
1759;SDS011;877;46.266;20.062;2023-07-29T01:05:30;8.53;;;5.53;;
1759;SDS011;877;46.266;20.062;2023-07-29T01:08:06;8.03;;;5.00;;
1759;SDS011;877;46.266;20.062;2023-07-29T01:10:51;9.57;;;4.97;;
1759;SDS011;877;46.266;20.062;2023-07-29T01:13:43;7.70;;;4.57;;
1759;SDS011;877;46.266;20.062;2023-07-29T01:16:17;7.67;;;4.73;;
1759;SDS011;877;46.266;20.062;2023-07-29T01:18:48;10.00;;;4.97;;
1759;SDS011;877;46.266;20.062;2023-07-29T01:21:17;11.93;;;5.67;;
1759;SDS011;877;46.266;20.062;2023-07-29T01:23:44;10.40;;;5.30;;
1759;SDS011;877;46.266;20.062;2023-07-29T01:26:10;9.07;;;5.70;;
1759;SDS011;877;46.266;20.062;2023-07-29T01:28:36;10.93;;;5.67;;
1759;SDS011;877;46.266;20.062;2023-07-29T01:33:59;8.80;;;5.20;;
1759;SDS011;877;46.266;20.062;2023-07-29T01:36:31;8.50;;;6.00;;
1759;SDS011;877;46.266;20.062;2023-07-29T01:38:59;8.80;;;5.00;;
1759;SDS011;877;46.266;20.062;2023-07-29T01:41:26;10.93;;;6.03;;
1759;SDS011;877;46.266;20.062;2023-07-29T01:43:53;12.23;;;5.77;;
1759;SDS011;877;46.266;20.062;2023-07-29T01:46:20;9.60;;;5.30;;
1759;SDS011;877;46.266;20.062;2023-07-29T01:48:46;11.00;;;5.60;;
1759;SDS011;877;46.266;20.062;2023-07-29T01:51:12;8.27;;;5.57;;
1759;SDS011;877;46.266;20.062;2023-07-29T01:53:38;10.93;;;5.27;;
1759;SDS011;877;46.266;20.062;2023-07-29T01:56:04;8.97;;;5.50;;
1759;SDS011;877;46.266;20.062;2023-07-29T01:58:29;7.77;;;6.17;;
1759;SDS011;877;46.266;20.062;2023-07-29T02:00:55;15.70;;;6.30;;
1759;SDS011;877;46.266;20.062;2023-07-29T02:03:21;11.63;;;5.70;;
1759;SDS011;877;46.266;20.062;2023-07-29T02:05:47;14.43;;;6.73;;
1759;SDS011;877;46.266;20.062;2023-07-29T02:08:13;12.40;;;5.90;;
1759;SDS011;877;46.266;20.062;2023-07-29T02:10:39;10.17;;;5.60;;
1759;SDS011;877;46.266;20.062;2023-07-29T02:13:05;14.10;;;6.40;;
1759;SDS011;877;46.266;20.062;2023-07-29T02:15:30;11.70;;;6.60;;
1759;SDS011;877;46.266;20.062;2023-07-29T02:17:56;11.00;;;6.60;;
1759;SDS011;877;46.266;20.062;2023-07-29T02:20:25;7.97;;;5.60;;
1759;SDS011;877;46.266;20.062;2023-07-29T02:22:50;9.70;;;6.30;;
1759;SDS011;877;46.266;20.062;2023-07-29T02:25:16;8.70;;;5.83;;
1759;SDS011;877;46.266;20.062;2023-07-29T02:27:42;7.30;;;5.27;;
1759;SDS011;877;46.266;20.062;2023-07-29T02:30:08;14.97;;;6.70;;
1759;SDS011;877;46.266;20.062;2023-07-29T02:32:37;8.80;;;5.63;;
1759;SDS011;877;46.266;20.062;2023-07-29T02:35:03;12.13;;;5.83;;
1759;SDS011;877;46.266;20.062;2023-07-29T02:37:30;9.77;;;6.33;;
1759;SDS011;877;46.266;20.062;2023-07-29T02:39:56;7.87;;;5.33;;
1759;SDS011;877;46.266;20.062;2023-07-29T02:42:22;6.80;;;5.20;;
1759;SDS011;877;46.266;20.062;2023-07-29T02:44:48;8.00;;;5.27;;
1759;SDS011;877;46.266;20.062;2023-07-29T02:47:14;9.93;;;5.43;;
1759;SDS011;877;46.266;20.062;2023-07-29T02:49:40;10.20;;;5.93;;
1759;SDS011;877;46.266;20.062;2023-07-29T02:52:05;10.33;;;6.70;;
1759;SDS011;877;46.266;20.062;2023-07-29T02:54:31;9.80;;;6.40;;
1759;SDS011;877;46.266;20.062;2023-07-29T02:56:57;11.13;;;5.30;;
1759;SDS011;877;46.266;20.062;2023-07-29T02:59:23;9.40;;;5.77;;
1759;SDS011;877;46.266;20.062;2023-07-29T03:01:49;7.57;;;6.10;;
1759;SDS011;877;46.266;20.062;2023-07-29T03:04:15;11.23;;;5.00;;
1759;SDS011;877;46.266;20.062;2023-07-29T03:06:41;8.67;;;5.43;;
1759;SDS011;877;46.266;20.062;2023-07-29T03:09:07;12.20;;;6.90;;
1759;SDS011;877;46.266;20.062;2023-07-29T03:11:33;9.30;;;5.60;;
1759;SDS011;877;46.266;20.062;2023-07-29T03:13:59;9.53;;;5.83;;
1759;SDS011;877;46.266;20.062;2023-07-29T03:16:25;10.30;;;5.90;;
1759;SDS011;877;46.266;20.062;2023-07-29T03:18:51;11.33;;;6.50;;
1759;SDS011;877;46.266;20.062;2023-07-29T03:21:17;10.13;;;6.27;;
1759;SDS011;877;46.266;20.062;2023-07-29T03:23:43;8.60;;;5.87;;
1759;SDS011;877;46.266;20.062;2023-07-29T03:26:09;9.37;;;6.60;;
1759;SDS011;877;46.266;20.062;2023-07-29T03:28:36;11.73;;;6.10;;
1759;SDS011;877;46.266;20.062;2023-07-29T03:31:06;9.97;;;6.77;;
1759;SDS011;877;46.266;20.062;2023-07-29T03:33:32;10.23;;;6.10;;
1759;SDS011;877;46.266;20.062;2023-07-29T03:35:58;8.63;;;6.20;;
1759;SDS011;877;46.266;20.062;2023-07-29T03:38:24;10.40;;;5.47;;
1759;SDS011;877;46.266;20.062;2023-07-29T03:40:50;8.37;;;5.83;;
1759;SDS011;877;46.266;20.062;2023-07-29T03:43:16;8.60;;;6.50;;
1759;SDS011;877;46.266;20.062;2023-07-29T03:45:43;11.53;;;6.87;;
1759;SDS011;877;46.266;20.062;2023-07-29T03:48:08;8.30;;;6.53;;
1759;SDS011;877;46.266;20.062;2023-07-29T03:50:35;9.57;;;6.60;;
1759;SDS011;877;46.266;20.062;2023-07-29T03:53:01;10.60;;;6.93;;
1759;SDS011;877;46.266;20.062;2023-07-29T03:55:29;13.93;;;6.93;;
1759;SDS011;877;46.266;20.062;2023-07-29T03:57:56;13.37;;;7.27;;
1759;SDS011;877;46.266;20.062;2023-07-29T04:00:22;14.17;;;6.50;;
1759;SDS011;877;46.266;20.062;2023-07-29T04:02:48;9.13;;;5.40;;
1759;SDS011;877;46.266;20.062;2023-07-29T04:05:14;8.53;;;5.80;;
1759;SDS011;877;46.266;20.062;2023-07-29T04:07:40;12.73;;;7.27;;
1759;SDS011;877;46.266;20.062;2023-07-29T04:10:06;8.20;;;5.90;;
1759;SDS011;877;46.266;20.062;2023-07-29T04:12:32;8.70;;;6.17;;
1759;SDS011;877;46.266;20.062;2023-07-29T04:14:58;9.20;;;6.57;;
1759;SDS011;877;46.266;20.062;2023-07-29T04:17:24;9.80;;;5.73;;
1759;SDS011;877;46.266;20.062;2023-07-29T04:19:49;12.90;;;6.70;;
1759;SDS011;877;46.266;20.062;2023-07-29T04:22:16;7.33;;;5.60;;
1759;SDS011;877;46.266;20.062;2023-07-29T04:24:42;9.03;;;6.07;;
1759;SDS011;877;46.266;20.062;2023-07-29T04:27:08;10.37;;;5.30;;
1759;SDS011;877;46.266;20.062;2023-07-29T04:29:33;7.60;;;5.33;;
1759;SDS011;877;46.266;20.062;2023-07-29T04:32:01;8.67;;;5.40;;
1759;SDS011;877;46.266;20.062;2023-07-29T04:34:28;7.70;;;5.50;;
1759;SDS011;877;46.266;20.062;2023-07-29T04:36:53;12.50;;;6.40;;
1759;SDS011;877;46.266;20.062;2023-07-29T04:39:19;9.43;;;5.57;;
1759;SDS011;877;46.266;20.062;2023-07-29T04:41:45;11.50;;;5.60;;
1759;SDS011;877;46.266;20.062;2023-07-29T04:44:11;11.77;;;5.50;;
1759;SDS011;877;46.266;20.062;2023-07-29T04:46:37;7.73;;;5.03;;
1759;SDS011;877;46.266;20.062;2023-07-29T04:49:04;11.97;;;5.40;;
1759;SDS011;877;46.266;20.062;2023-07-29T04:51:30;6.63;;;5.20;;
1759;SDS011;877;46.266;20.062;2023-07-29T04:53:57;6.90;;;5.33;;
1759;SDS011;877;46.266;20.062;2023-07-29T04:56:23;6.97;;;4.60;;
1759;SDS011;877;46.266;20.062;2023-07-29T04:58:49;7.80;;;5.20;;
1759;SDS011;877;46.266;20.062;2023-07-29T05:01:15;6.97;;;3.97;;
1759;SDS011;877;46.266;20.062;2023-07-29T05:03:41;6.63;;;4.30;;
1759;SDS011;877;46.266;20.062;2023-07-29T05:06:06;10.90;;;5.10;;
1759;SDS011;877;46.266;20.062;2023-07-29T05:08:32;7.50;;;4.00;;
1759;SDS011;877;46.266;20.062;2023-07-29T05:10:59;8.33;;;4.83;;
1759;SDS011;877;46.266;20.062;2023-07-29T05:13:26;9.53;;;5.00;;
1759;SDS011;877;46.266;20.062;2023-07-29T05:15:52;7.07;;;4.50;;
1759;SDS011;877;46.266;20.062;2023-07-29T05:18:18;9.83;;;5.07;;
1759;SDS011;877;46.266;20.062;2023-07-29T05:20:44;9.80;;;4.70;;
1759;SDS011;877;46.266;20.062;2023-07-29T05:23:11;11.37;;;5.27;;
1759;SDS011;877;46.266;20.062;2023-07-29T05:25:37;8.17;;;4.67;;
1759;SDS011;877;46.266;20.062;2023-07-29T05:28:03;6.57;;;4.73;;
1759;SDS011;877;46.266;20.062;2023-07-29T05:30:29;7.90;;;4.00;;
1759;SDS011;877;46.266;20.062;2023-07-29T05:32:59;5.77;;;4.20;;
1759;SDS011;877;46.266;20.062;2023-07-29T05:35:25;6.20;;;3.87;;
1759;SDS011;877;46.266;20.062;2023-07-29T05:37:51;6.30;;;4.47;;
1759;SDS011;877;46.266;20.062;2023-07-29T05:40:17;8.97;;;4.33;;
1759;SDS011;877;46.266;20.062;2023-07-29T05:42:43;11.07;;;4.60;;
1759;SDS011;877;46.266;20.062;2023-07-29T05:45:10;7.30;;;3.93;;
1759;SDS011;877;46.266;20.062;2023-07-29T05:47:36;7.77;;;3.93;;
1759;SDS011;877;46.266;20.062;2023-07-29T05:50:02;9.80;;;4.20;;
1759;SDS011;877;46.266;20.062;2023-07-29T05:52:30;6.37;;;4.00;;
1759;SDS011;877;46.266;20.062;2023-07-29T05:54:56;7.47;;;3.83;;
1759;SDS011;877;46.266;20.062;2023-07-29T05:57:22;7.60;;;4.50;;
1759;SDS011;877;46.266;20.062;2023-07-29T05:59:47;6.67;;;3.80;;
1759;SDS011;877;46.266;20.062;2023-07-29T06:02:13;6.23;;;3.93;;
1759;SDS011;877;46.266;20.062;2023-07-29T06:04:39;10.03;;;3.63;;
1759;SDS011;877;46.266;20.062;2023-07-29T06:07:05;6.80;;;4.23;;
1759;SDS011;877;46.266;20.062;2023-07-29T06:09:31;8.10;;;3.63;;
1759;SDS011;877;46.266;20.062;2023-07-29T06:11:57;4.93;;;3.60;;
1759;SDS011;877;46.266;20.062;2023-07-29T06:14:23;6.10;;;3.47;;
1759;SDS011;877;46.266;20.062;2023-07-29T06:16:49;5.83;;;3.70;;
1759;SDS011;877;46.266;20.062;2023-07-29T06:19:14;7.27;;;3.90;;
1759;SDS011;877;46.266;20.062;2023-07-29T06:21:40;6.53;;;3.57;;
1759;SDS011;877;46.266;20.062;2023-07-29T06:24:06;7.20;;;3.77;;
1759;SDS011;877;46.266;20.062;2023-07-29T06:26:32;6.87;;;3.50;;
1759;SDS011;877;46.266;20.062;2023-07-29T06:28:58;6.80;;;3.93;;
1759;SDS011;877;46.266;20.062;2023-07-29T06:31:23;7.40;;;3.70;;
1759;SDS011;877;46.266;20.062;2023-07-29T06:33:50;6.07;;;3.37;;
1759;SDS011;877;46.266;20.062;2023-07-29T06:36:16;6.30;;;3.20;;
1759;SDS011;877;46.266;20.062;2023-07-29T06:38:42;5.30;;;3.50;;
1759;SDS011;877;46.266;20.062;2023-07-29T06:41:07;5.30;;;3.67;;
1759;SDS011;877;46.266;20.062;2023-07-29T06:43:34;7.00;;;3.23;;
1759;SDS011;877;46.266;20.062;2023-07-29T06:46:00;7.23;;;3.50;;
1759;SDS011;877;46.266;20.062;2023-07-29T06:48:27;7.47;;;3.90;;
1759;SDS011;877;46.266;20.062;2023-07-29T06:50:52;5.20;;;3.60;;
1759;SDS011;877;46.266;20.062;2023-07-29T06:53:20;5.90;;;3.60;;
1759;SDS011;877;46.266;20.062;2023-07-29T06:55:46;8.13;;;3.80;;
1759;SDS011;877;46.266;20.062;2023-07-29T06:58:12;5.77;;;3.87;;
1759;SDS011;877;46.266;20.062;2023-07-29T07:00:38;7.40;;;4.13;;
1759;SDS011;877;46.266;20.062;2023-07-29T07:03:04;6.17;;;3.13;;
1759;SDS011;877;46.266;20.062;2023-07-29T07:05:30;6.47;;;3.40;;
1759;SDS011;877;46.266;20.062;2023-07-29T07:07:56;6.53;;;3.17;;
1759;SDS011;877;46.266;20.062;2023-07-29T07:10:22;7.87;;;3.70;;
1759;SDS011;877;46.266;20.062;2023-07-29T07:12:48;5.13;;;3.60;;
1759;SDS011;877;46.266;20.062;2023-07-29T07:15:13;7.10;;;3.60;;
1759;SDS011;877;46.266;20.062;2023-07-29T07:17:39;8.00;;;3.93;;
1759;SDS011;877;46.266;20.062;2023-07-29T07:20:05;6.27;;;3.60;;
1759;SDS011;877;46.266;20.062;2023-07-29T07:22:32;4.80;;;3.20;;
1759;SDS011;877;46.266;20.062;2023-07-29T07:24:58;6.23;;;3.30;;
1759;SDS011;877;46.266;20.062;2023-07-29T07:27:24;6.93;;;3.60;;
1759;SDS011;877;46.266;20.062;2023-07-29T07:29:50;5.40;;;3.43;;
1759;SDS011;877;46.266;20.062;2023-07-29T07:32:16;10.13;;;3.93;;
1759;SDS011;877;46.266;20.062;2023-07-29T07:34:41;4.67;;;3.03;;
1759;SDS011;877;46.266;20.062;2023-07-29T07:37:07;5.47;;;2.50;;
1759;SDS011;877;46.266;20.062;2023-07-29T07:39:33;13.53;;;3.33;;
1759;SDS011;877;46.266;20.062;2023-07-29T07:41:59;5.43;;;3.00;;
1759;SDS011;877;46.266;20.062;2023-07-29T07:44:25;5.47;;;3.20;;
1759;SDS011;877;46.266;20.062;2023-07-29T07:46:52;5.33;;;3.40;;
1759;SDS011;877;46.266;20.062;2023-07-29T07:49:18;11.80;;;3.40;;
1759;SDS011;877;46.266;20.062;2023-07-29T07:51:45;5.63;;;2.80;;
1759;SDS011;877;46.266;20.062;2023-07-29T07:54:10;4.53;;;2.90;;
1759;SDS011;877;46.266;20.062;2023-07-29T07:56:36;4.37;;;2.80;;
1759;SDS011;877;46.266;20.062;2023-07-29T07:59:02;9.57;;;3.80;;
1759;SDS011;877;46.266;20.062;2023-07-29T08:01:28;5.10;;;3.00;;
1759;SDS011;877;46.266;20.062;2023-07-29T08:04:02;7.10;;;3.30;;
1759;SDS011;877;46.266;20.062;2023-07-29T08:06:29;6.77;;;2.93;;
1759;SDS011;877;46.266;20.062;2023-07-29T08:08:55;7.50;;;3.93;;
1759;SDS011;877;46.266;20.062;2023-07-29T08:11:21;5.27;;;3.30;;
1759;SDS011;877;46.266;20.062;2023-07-29T08:13:47;5.40;;;3.00;;
1759;SDS011;877;46.266;20.062;2023-07-29T08:16:13;6.27;;;2.77;;
1759;SDS011;877;46.266;20.062;2023-07-29T08:18:39;5.00;;;3.07;;
1759;SDS011;877;46.266;20.062;2023-07-29T08:21:05;6.27;;;4.03;;
1759;SDS011;877;46.266;20.062;2023-07-29T08:23:31;5.63;;;2.87;;
1759;SDS011;877;46.266;20.062;2023-07-29T08:25:59;4.87;;;3.23;;
1759;SDS011;877;46.266;20.062;2023-07-29T08:28:34;7.40;;;3.70;;
1759;SDS011;877;46.266;20.062;2023-07-29T08:31:01;5.70;;;2.93;;
1759;SDS011;877;46.266;20.062;2023-07-29T08:33:27;4.70;;;2.67;;
1759;SDS011;877;46.266;20.062;2023-07-29T08:35:53;5.43;;;2.73;;
1759;SDS011;877;46.266;20.062;2023-07-29T08:38:19;5.23;;;3.07;;
1759;SDS011;877;46.266;20.062;2023-07-29T08:40:50;6.37;;;3.07;;
1759;SDS011;877;46.266;20.062;2023-07-29T08:43:23;10.87;;;3.10;;
1759;SDS011;877;46.266;20.062;2023-07-29T08:45:55;4.33;;;2.83;;
1759;SDS011;877;46.266;20.062;2023-07-29T08:48:23;7.20;;;3.00;;
1759;SDS011;877;46.266;20.062;2023-07-29T08:50:59;8.13;;;2.97;;
1759;SDS011;877;46.266;20.062;2023-07-29T08:53:26;4.20;;;2.90;;
1759;SDS011;877;46.266;20.062;2023-07-29T08:55:53;4.50;;;2.93;;
1759;SDS011;877;46.266;20.062;2023-07-29T08:58:20;9.13;;;2.67;;
1759;SDS011;877;46.266;20.062;2023-07-29T09:00:47;5.77;;;2.63;;
1759;SDS011;877;46.266;20.062;2023-07-29T09:03:14;8.07;;;3.10;;
1759;SDS011;877;46.266;20.062;2023-07-29T09:05:40;6.00;;;2.43;;
1759;SDS011;877;46.266;20.062;2023-07-29T09:08:06;6.47;;;2.90;;
1759;SDS011;877;46.266;20.062;2023-07-29T09:10:35;5.30;;;2.70;;
1759;SDS011;877;46.266;20.062;2023-07-29T09:13:03;4.93;;;2.80;;
1759;SDS011;877;46.266;20.062;2023-07-29T09:15:30;7.00;;;3.17;;
1759;SDS011;877;46.266;20.062;2023-07-29T09:17:57;9.53;;;2.97;;
1759;SDS011;877;46.266;20.062;2023-07-29T09:20:27;5.27;;;3.00;;
1759;SDS011;877;46.266;20.062;2023-07-29T09:22:54;4.00;;;2.47;;
1759;SDS011;877;46.266;20.062;2023-07-29T09:25:26;5.00;;;2.73;;
1759;SDS011;877;46.266;20.062;2023-07-29T09:27:58;5.30;;;2.70;;
1759;SDS011;877;46.266;20.062;2023-07-29T09:30:25;4.93;;;2.90;;
1759;SDS011;877;46.266;20.062;2023-07-29T09:32:57;4.60;;;2.73;;
1759;SDS011;877;46.266;20.062;2023-07-29T09:35:25;5.47;;;3.27;;
1759;SDS011;877;46.266;20.062;2023-07-29T09:37:54;4.90;;;3.17;;
1759;SDS011;877;46.266;20.062;2023-07-29T09:40:20;5.33;;;2.70;;
1759;SDS011;877;46.266;20.062;2023-07-29T09:42:50;7.13;;;3.00;;
1759;SDS011;877;46.266;20.062;2023-07-29T09:45:23;6.80;;;3.43;;
1759;SDS011;877;46.266;20.062;2023-07-29T09:47:51;5.77;;;3.30;;
1759;SDS011;877;46.266;20.062;2023-07-29T09:50:18;7.40;;;3.30;;
1759;SDS011;877;46.266;20.062;2023-07-29T09:52:44;5.20;;;2.90;;
1759;SDS011;877;46.266;20.062;2023-07-29T09:55:16;7.50;;;4.00;;
1759;SDS011;877;46.266;20.062;2023-07-29T09:57:44;14.40;;;9.33;;
1759;SDS011;877;46.266;20.062;2023-07-29T10:00:11;12.47;;;7.80;;
1759;SDS011;877;46.266;20.062;2023-07-29T10:02:43;6.90;;;3.50;;
1759;SDS011;877;46.266;20.062;2023-07-29T10:05:09;5.20;;;3.33;;
1759;SDS011;877;46.266;20.062;2023-07-29T10:07:38;5.53;;;3.40;;
1759;SDS011;877;46.266;20.062;2023-07-29T10:10:06;5.80;;;2.93;;
1759;SDS011;877;46.266;20.062;2023-07-29T10:12:33;8.00;;;3.57;;
1759;SDS011;877;46.266;20.062;2023-07-29T10:17:33;5.63;;;3.27;;
1759;SDS011;877;46.266;20.062;2023-07-29T10:20:03;4.47;;;2.87;;
1759;SDS011;877;46.266;20.062;2023-07-29T10:25:04;9.33;;;3.33;;
1759;SDS011;877;46.266;20.062;2023-07-29T10:30:12;9.87;;;4.00;;
1759;SDS011;877;46.266;20.062;2023-07-29T10:32:41;9.87;;;3.30;;
1759;SDS011;877;46.266;20.062;2023-07-29T10:35:09;4.83;;;2.90;;
1759;SDS011;877;46.266;20.062;2023-07-29T10:37:35;6.40;;;2.97;;
1759;SDS011;877;46.266;20.062;2023-07-29T10:40:02;7.33;;;6.07;;
1759;SDS011;877;46.266;20.062;2023-07-29T10:42:32;7.93;;;5.70;;
1759;SDS011;877;46.266;20.062;2023-07-29T10:44:58;4.80;;;2.87;;
1759;SDS011;877;46.266;20.062;2023-07-29T10:47:24;6.23;;;2.97;;
1759;SDS011;877;46.266;20.062;2023-07-29T10:49:53;4.33;;;2.60;;
1759;SDS011;877;46.266;20.062;2023-07-29T10:52:28;8.10;;;3.23;;
1759;SDS011;877;46.266;20.062;2023-07-29T10:55:00;5.00;;;3.00;;
1759;SDS011;877;46.266;20.062;2023-07-29T10:57:35;5.60;;;3.07;;
1759;SDS011;877;46.266;20.062;2023-07-29T11:00:03;5.63;;;3.20;;
1759;SDS011;877;46.266;20.062;2023-07-29T11:02:31;4.93;;;3.33;;
1759;SDS011;877;46.266;20.062;2023-07-29T11:05:07;3.90;;;2.63;;
1759;SDS011;877;46.266;20.062;2023-07-29T11:07:44;6.20;;;2.53;;
1759;SDS011;877;46.266;20.062;2023-07-29T11:10:12;5.40;;;2.97;;
1759;SDS011;877;46.266;20.062;2023-07-29T11:12:42;5.77;;;3.40;;
1759;SDS011;877;46.266;20.062;2023-07-29T11:15:16;5.20;;;3.20;;
1759;SDS011;877;46.266;20.062;2023-07-29T11:20:27;5.83;;;3.30;;
1759;SDS011;877;46.266;20.062;2023-07-29T11:22:55;4.40;;;2.67;;
1759;SDS011;877;46.266;20.062;2023-07-29T11:25:23;4.67;;;2.97;;
1759;SDS011;877;46.266;20.062;2023-07-29T11:27:54;6.90;;;4.00;;
1759;SDS011;877;46.266;20.062;2023-07-29T11:30:21;5.00;;;3.20;;
1759;SDS011;877;46.266;20.062;2023-07-29T11:32:54;4.30;;;2.80;;
1759;SDS011;877;46.266;20.062;2023-07-29T11:35:21;4.70;;;3.10;;
1759;SDS011;877;46.266;20.062;2023-07-29T11:37:48;7.00;;;2.97;;
1759;SDS011;877;46.266;20.062;2023-07-29T11:40:16;7.40;;;3.77;;
1759;SDS011;877;46.266;20.062;2023-07-29T11:42:43;6.00;;;3.40;;
1759;SDS011;877;46.266;20.062;2023-07-29T11:45:12;4.30;;;3.07;;
1759;SDS011;877;46.266;20.062;2023-07-29T11:47:39;6.30;;;3.50;;
1759;SDS011;877;46.266;20.062;2023-07-29T11:50:06;3.93;;;2.80;;
1759;SDS011;877;46.266;20.062;2023-07-29T11:52:36;5.57;;;3.10;;
1759;SDS011;877;46.266;20.062;2023-07-29T11:55:05;5.77;;;3.43;;
1759;SDS011;877;46.266;20.062;2023-07-29T11:57:31;4.97;;;3.83;;
1759;SDS011;877;46.266;20.062;2023-07-29T11:59:59;6.10;;;3.70;;
1759;SDS011;877;46.266;20.062;2023-07-29T12:02:33;5.33;;;3.73;;
1759;SDS011;877;46.266;20.062;2023-07-29T12:05:02;5.80;;;4.20;;
1759;SDS011;877;46.266;20.062;2023-07-29T12:07:29;7.73;;;3.90;;
1759;SDS011;877;46.266;20.062;2023-07-29T12:09:57;6.87;;;4.37;;
1759;SDS011;877;46.266;20.062;2023-07-29T12:12:23;6.33;;;4.40;;
1759;SDS011;877;46.266;20.062;2023-07-29T12:14:48;6.40;;;4.10;;
1759;SDS011;877;46.266;20.062;2023-07-29T12:17:16;7.37;;;3.73;;
1759;SDS011;877;46.266;20.062;2023-07-29T12:19:43;5.30;;;3.67;;
1759;SDS011;877;46.266;20.062;2023-07-29T12:22:10;5.63;;;3.70;;
1759;SDS011;877;46.266;20.062;2023-07-29T12:24:37;5.70;;;3.90;;
1759;SDS011;877;46.266;20.062;2023-07-29T12:27:06;8.43;;;4.30;;
1759;SDS011;877;46.266;20.062;2023-07-29T12:29:40;9.20;;;5.13;;
1759;SDS011;877;46.266;20.062;2023-07-29T12:32:07;6.03;;;4.07;;
1759;SDS011;877;46.266;20.062;2023-07-29T12:34:34;7.90;;;4.43;;
1759;SDS011;877;46.266;20.062;2023-07-29T12:37:02;8.00;;;5.40;;
1759;SDS011;877;46.266;20.062;2023-07-29T12:39:29;6.90;;;4.57;;
1759;SDS011;877;46.266;20.062;2023-07-29T12:41:56;6.50;;;4.10;;
1759;SDS011;877;46.266;20.062;2023-07-29T12:44:24;10.80;;;4.40;;
1759;SDS011;877;46.266;20.062;2023-07-29T12:46:50;7.03;;;4.73;;
1759;SDS011;877;46.266;20.062;2023-07-29T12:49:17;5.50;;;4.23;;
1759;SDS011;877;46.266;20.062;2023-07-29T12:51:43;7.33;;;4.50;;
1759;SDS011;877;46.266;20.062;2023-07-29T12:54:09;9.20;;;5.27;;
1759;SDS011;877;46.266;20.062;2023-07-29T12:56:35;7.53;;;4.60;;
1759;SDS011;877;46.266;20.062;2023-07-29T12:59:01;7.07;;;3.70;;
1759;SDS011;877;46.266;20.062;2023-07-29T13:01:28;9.23;;;6.10;;
1759;SDS011;877;46.266;20.062;2023-07-29T13:03:54;7.83;;;4.40;;
1759;SDS011;877;46.266;20.062;2023-07-29T13:06:19;9.50;;;4.33;;
1759;SDS011;877;46.266;20.062;2023-07-29T13:08:46;6.60;;;4.23;;
1759;SDS011;877;46.266;20.062;2023-07-29T13:11:12;5.63;;;4.43;;
1759;SDS011;877;46.266;20.062;2023-07-29T13:13:39;6.17;;;4.23;;
1759;SDS011;877;46.266;20.062;2023-07-29T13:16:05;7.10;;;4.57;;
1759;SDS011;877;46.266;20.062;2023-07-29T13:18:31;5.43;;;3.77;;
1759;SDS011;877;46.266;20.062;2023-07-29T13:20:57;7.40;;;3.87;;
1759;SDS011;877;46.266;20.062;2023-07-29T13:23:23;5.13;;;4.23;;
1759;SDS011;877;46.266;20.062;2023-07-29T13:25:49;8.23;;;4.60;;
1759;SDS011;877;46.266;20.062;2023-07-29T13:28:15;5.50;;;3.87;;
1759;SDS011;877;46.266;20.062;2023-07-29T13:30:41;10.80;;;5.50;;
1759;SDS011;877;46.266;20.062;2023-07-29T13:33:07;8.97;;;6.10;;
1759;SDS011;877;46.266;20.062;2023-07-29T13:35:33;7.70;;;4.80;;
1759;SDS011;877;46.266;20.062;2023-07-29T13:37:59;6.67;;;4.53;;
1759;SDS011;877;46.266;20.062;2023-07-29T13:40:25;5.90;;;3.70;;
1759;SDS011;877;46.266;20.062;2023-07-29T13:42:51;5.73;;;3.20;;
1759;SDS011;877;46.266;20.062;2023-07-29T13:45:17;7.73;;;3.50;;
1759;SDS011;877;46.266;20.062;2023-07-29T13:47:44;10.83;;;4.20;;
1759;SDS011;877;46.266;20.062;2023-07-29T13:50:10;6.60;;;3.70;;
1759;SDS011;877;46.266;20.062;2023-07-29T13:52:37;6.10;;;4.27;;
1759;SDS011;877;46.266;20.062;2023-07-29T13:55:03;7.13;;;3.63;;
1759;SDS011;877;46.266;20.062;2023-07-29T13:57:30;8.40;;;3.87;;
1759;SDS011;877;46.266;20.062;2023-07-29T13:59:56;4.53;;;2.83;;
1759;SDS011;877;46.266;20.062;2023-07-29T14:02:22;6.73;;;3.87;;
1759;SDS011;877;46.266;20.062;2023-07-29T14:04:48;5.33;;;3.57;;
1759;SDS011;877;46.266;20.062;2023-07-29T14:07:15;7.37;;;3.90;;
1759;SDS011;877;46.266;20.062;2023-07-29T14:09:41;4.63;;;3.20;;
1759;SDS011;877;46.266;20.062;2023-07-29T14:12:08;6.03;;;3.27;;
1759;SDS011;877;46.266;20.062;2023-07-29T14:14:37;4.90;;;3.60;;
1759;SDS011;877;46.266;20.062;2023-07-29T14:17:04;6.50;;;3.10;;
1759;SDS011;877;46.266;20.062;2023-07-29T14:19:30;5.20;;;3.37;;
1759;SDS011;877;46.266;20.062;2023-07-29T14:21:57;4.50;;;3.50;;
1759;SDS011;877;46.266;20.062;2023-07-29T14:24:23;6.30;;;3.10;;
1759;SDS011;877;46.266;20.062;2023-07-29T14:26:49;6.33;;;3.23;;
1759;SDS011;877;46.266;20.062;2023-07-29T14:29:15;6.70;;;3.67;;
1759;SDS011;877;46.266;20.062;2023-07-29T14:31:42;4.40;;;3.03;;
1759;SDS011;877;46.266;20.062;2023-07-29T14:34:09;4.60;;;3.17;;
1759;SDS011;877;46.266;20.062;2023-07-29T14:36:35;4.37;;;2.73;;
1759;SDS011;877;46.266;20.062;2023-07-29T14:39:01;5.80;;;3.90;;
1759;SDS011;877;46.266;20.062;2023-07-29T14:41:27;5.80;;;3.13;;
1759;SDS011;877;46.266;20.062;2023-07-29T14:43:53;5.80;;;3.13;;
1759;SDS011;877;46.266;20.062;2023-07-29T14:46:18;6.63;;;3.10;;
1759;SDS011;877;46.266;20.062;2023-07-29T14:48:45;4.77;;;2.67;;
1759;SDS011;877;46.266;20.062;2023-07-29T14:51:12;6.17;;;3.00;;
1759;SDS011;877;46.266;20.062;2023-07-29T14:53:38;6.13;;;3.97;;
1759;SDS011;877;46.266;20.062;2023-07-29T14:56:04;4.90;;;3.40;;
1759;SDS011;877;46.266;20.062;2023-07-29T14:58:30;6.77;;;3.37;;
1759;SDS011;877;46.266;20.062;2023-07-29T15:00:56;4.83;;;3.10;;
1759;SDS011;877;46.266;20.062;2023-07-29T15:03:23;5.90;;;3.03;;
1759;SDS011;877;46.266;20.062;2023-07-29T15:05:49;5.93;;;3.37;;
1759;SDS011;877;46.266;20.062;2023-07-29T15:08:15;8.20;;;3.30;;
1759;SDS011;877;46.266;20.062;2023-07-29T15:10:45;5.30;;;2.77;;
1759;SDS011;877;46.266;20.062;2023-07-29T15:13:11;8.53;;;3.37;;
1759;SDS011;877;46.266;20.062;2023-07-29T15:15:40;5.63;;;2.97;;
1759;SDS011;877;46.266;20.062;2023-07-29T15:18:07;4.87;;;3.10;;
1759;SDS011;877;46.266;20.062;2023-07-29T15:20:33;5.97;;;3.97;;
1759;SDS011;877;46.266;20.062;2023-07-29T15:22:59;4.13;;;2.87;;
1759;SDS011;877;46.266;20.062;2023-07-29T15:25:24;5.00;;;3.17;;